sensor_id;sensor_type;location;lat;lon;timestamp;temperature;humidity
19652;DHT22;9974;52.146;14.668;2023-11-21T00:01:57;9.30;99.90
19652;DHT22;9974;52.146;14.668;2023-11-21T00:04:23;9.30;99.90
19652;DHT22;9974;52.146;14.668;2023-11-21T00:06:48;9.30;99.90
19652;DHT22;9974;52.146;14.668;2023-11-21T00:09:14;9.30;99.90
19652;DHT22;9974;52.146;14.668;2023-11-21T00:11:44;9.20;99.90
19652;DHT22;9974;52.146;14.668;2023-11-21T00:14:10;9.20;99.90
19652;DHT22;9974;52.146;14.668;2023-11-21T00:16:36;9.30;99.90
19652;DHT22;9974;52.146;14.668;2023-11-21T00:19:02;9.20;99.90
19652;DHT22;9974;52.146;14.668;2023-11-21T00:21:27;9.30;99.90
19652;DHT22;9974;52.146;14.668;2023-11-21T00:23:53;9.30;99.90
19652;DHT22;9974;52.146;14.668;2023-11-21T00:26:19;9.30;99.90
19652;DHT22;9974;52.146;14.668;2023-11-21T00:28:44;9.20;99.90
19652;DHT22;9974;52.146;14.668;2023-11-21T00:31:10;9.20;99.90
19652;DHT22;9974;52.146;14.668;2023-11-21T00:33:36;9.20;99.90
19652;DHT22;9974;52.146;14.668;2023-11-21T00:36:02;9.10;99.90
19652;DHT22;9974;52.146;14.668;2023-11-21T00:38:27;9.10;99.90
19652;DHT22;9974;52.146;14.668;2023-11-21T00:40:53;9.20;99.90
19652;DHT22;9974;52.146;14.668;2023-11-21T00:43:24;9.10;99.90
19652;DHT22;9974;52.146;14.668;2023-11-21T00:45:50;9.10;99.90
19652;DHT22;9974;52.146;14.668;2023-11-21T00:48:16;9.10;99.90
19652;DHT22;9974;52.146;14.668;2023-11-21T00:50:42;9.10;99.90
19652;DHT22;9974;52.146;14.668;2023-11-21T00:53:07;9.10;99.90
19652;DHT22;9974;52.146;14.668;2023-11-21T00:55:33;9.20;99.90
19652;DHT22;9974;52.146;14.668;2023-11-21T00:58:00;9.20;99.90
19652;DHT22;9974;52.146;14.668;2023-11-21T01:00:25;9.10;99.90
19652;DHT22;9974;52.146;14.668;2023-11-21T01:02:51;9.10;99.90
19652;DHT22;9974;52.146;14.668;2023-11-21T01:05:17;9.10;99.90
19652;DHT22;9974;52.146;14.668;2023-11-21T01:07:42;9.10;99.90
19652;DHT22;9974;52.146;14.668;2023-11-21T01:10:08;9.10;99.90
19652;DHT22;9974;52.146;14.668;2023-11-21T01:12:38;9.10;99.90
19652;DHT22;9974;52.146;14.668;2023-11-21T01:15:04;9.00;99.90
19652;DHT22;9974;52.146;14.668;2023-11-21T01:17:33;9.00;99.90
19652;DHT22;9974;52.146;14.668;2023-11-21T01:19:59;9.00;99.90
19652;DHT22;9974;52.146;14.668;2023-11-21T01:22:25;9.00;99.90
19652;DHT22;9974;52.146;14.668;2023-11-21T01:24:52;9.10;99.90
19652;DHT22;9974;52.146;14.668;2023-11-21T01:27:18;9.00;99.90
19652;DHT22;9974;52.146;14.668;2023-11-21T01:29:44;9.00;99.90
19652;DHT22;9974;52.146;14.668;2023-11-21T01:32:10;9.10;99.90
19652;DHT22;9974;52.146;14.668;2023-11-21T01:34:35;9.00;99.90
19652;DHT22;9974;52.146;14.668;2023-11-21T01:37:01;9.00;99.90
19652;DHT22;9974;52.146;14.668;2023-11-21T01:39:31;9.00;99.90
19652;DHT22;9974;52.146;14.668;2023-11-21T01:44:26;8.80;99.90
19652;DHT22;9974;52.146;14.668;2023-11-21T01:46:52;8.80;99.90
19652;DHT22;9974;52.146;14.668;2023-11-21T01:49:17;8.80;99.90
19652;DHT22;9974;52.146;14.668;2023-11-21T01:51:44;8.70;99.90
19652;DHT22;9974;52.146;14.668;2023-11-21T01:54:12;8.60;99.90
19652;DHT22;9974;52.146;14.668;2023-11-21T01:56:38;8.50;99.90
19652;DHT22;9974;52.146;14.668;2023-11-21T01:59:04;8.50;99.90
19652;DHT22;9974;52.146;14.668;2023-11-21T02:01:33;8.40;99.90
19652;DHT22;9974;52.146;14.668;2023-11-21T02:03:59;8.30;99.90
19652;DHT22;9974;52.146;14.668;2023-11-21T02:06:24;8.20;99.90
19652;DHT22;9974;52.146;14.668;2023-11-21T02:08:51;8.20;99.90
19652;DHT22;9974;52.146;14.668;2023-11-21T02:11:16;8.20;99.90
19652;DHT22;9974;52.146;14.668;2023-11-21T02:16:09;7.90;99.90
19652;DHT22;9974;52.146;14.668;2023-11-21T02:18:38;8.00;99.90
19652;DHT22;9974;52.146;14.668;2023-11-21T02:21:04;7.90;99.90
19652;DHT22;9974;52.146;14.668;2023-11-21T02:23:30;7.80;99.90
19652;DHT22;9974;52.146;14.668;2023-11-21T02:25:55;7.80;99.90
19652;DHT22;9974;52.146;14.668;2023-11-21T02:28:21;7.80;99.90
19652;DHT22;9974;52.146;14.668;2023-11-21T02:30:54;7.80;99.90
19652;DHT22;9974;52.146;14.668;2023-11-21T02:33:21;7.70;99.90
19652;DHT22;9974;52.146;14.668;2023-11-21T02:35:47;7.70;99.90
19652;DHT22;9974;52.146;14.668;2023-11-21T02:38:13;7.60;99.90
19652;DHT22;9974;52.146;14.668;2023-11-21T02:40:39;7.60;99.90
19652;DHT22;9974;52.146;14.668;2023-11-21T02:43:04;7.50;99.90
19652;DHT22;9974;52.146;14.668;2023-11-21T02:45:31;7.60;99.90
19652;DHT22;9974;52.146;14.668;2023-11-21T02:47:57;7.60;99.90
19652;DHT22;9974;52.146;14.668;2023-11-21T02:50:23;7.60;99.90
19652;DHT22;9974;52.146;14.668;2023-11-21T02:52:49;7.50;99.90
19652;DHT22;9974;52.146;14.668;2023-11-21T02:55:15;7.50;99.90
19652;DHT22;9974;52.146;14.668;2023-11-21T02:57:41;7.40;99.90
19652;DHT22;9974;52.146;14.668;2023-11-21T03:00:06;7.40;99.90
19652;DHT22;9974;52.146;14.668;2023-11-21T03:02:33;7.40;99.90
19652;DHT22;9974;52.146;14.668;2023-11-21T03:05:02;7.40;99.90
19652;DHT22;9974;52.146;14.668;2023-11-21T03:07:27;7.30;99.90
19652;DHT22;9974;52.146;14.668;2023-11-21T03:09:53;7.30;99.90
19652;DHT22;9974;52.146;14.668;2023-11-21T03:12:18;7.20;99.90
19652;DHT22;9974;52.146;14.668;2023-11-21T03:14:44;7.30;99.90
19652;DHT22;9974;52.146;14.668;2023-11-21T03:17:10;7.20;99.90
19652;DHT22;9974;52.146;14.668;2023-11-21T03:19:36;7.10;99.90
19652;DHT22;9974;52.146;14.668;2023-11-21T03:22:02;7.10;99.90
19652;DHT22;9974;52.146;14.668;2023-11-21T03:24:29;6.90;99.90
19652;DHT22;9974;52.146;14.668;2023-11-21T03:26:55;7.00;99.90
19652;DHT22;9974;52.146;14.668;2023-11-21T03:29:20;6.90;99.90
19652;DHT22;9974;52.146;14.668;2023-11-21T03:31:46;6.90;99.90
19652;DHT22;9974;52.146;14.668;2023-11-21T03:34:15;7.00;99.90
19652;DHT22;9974;52.146;14.668;2023-11-21T03:36:41;6.90;99.90
19652;DHT22;9974;52.146;14.668;2023-11-21T03:39:07;6.90;99.90
19652;DHT22;9974;52.146;14.668;2023-11-21T03:41:32;6.80;99.90
19652;DHT22;9974;52.146;14.668;2023-11-21T03:43:59;6.80;99.90
19652;DHT22;9974;52.146;14.668;2023-11-21T03:46:24;6.80;99.90
19652;DHT22;9974;52.146;14.668;2023-11-21T03:48:50;6.80;99.90
19652;DHT22;9974;52.146;14.668;2023-11-21T03:51:16;6.80;99.90
19652;DHT22;9974;52.146;14.668;2023-11-21T03:53:42;6.80;99.90
19652;DHT22;9974;52.146;14.668;2023-11-21T03:56:07;6.80;99.90
19652;DHT22;9974;52.146;14.668;2023-11-21T03:58:33;6.80;99.90
19652;DHT22;9974;52.146;14.668;2023-11-21T04:00:59;6.70;99.90
19652;DHT22;9974;52.146;14.668;2023-11-21T04:03:25;6.70;99.90
19652;DHT22;9974;52.146;14.668;2023-11-21T04:05:50;6.70;99.90
19652;DHT22;9974;52.146;14.668;2023-11-21T04:08:16;6.60;99.90
19652;DHT22;9974;52.146;14.668;2023-11-21T04:10:41;6.60;99.90
19652;DHT22;9974;52.146;14.668;2023-11-21T04:13:07;6.60;99.90
19652;DHT22;9974;52.146;14.668;2023-11-21T04:15:33;6.60;99.90
19652;DHT22;9974;52.146;14.668;2023-11-21T04:17:58;6.50;99.90
19652;DHT22;9974;52.146;14.668;2023-11-21T04:20:24;6.50;99.90
19652;DHT22;9974;52.146;14.668;2023-11-21T04:22:50;6.50;99.90
19652;DHT22;9974;52.146;14.668;2023-11-21T04:25:15;6.50;99.90
19652;DHT22;9974;52.146;14.668;2023-11-21T04:27:41;6.50;99.90
19652;DHT22;9974;52.146;14.668;2023-11-21T04:30:10;6.40;99.90
19652;DHT22;9974;52.146;14.668;2023-11-21T04:32:37;6.40;99.90
19652;DHT22;9974;52.146;14.668;2023-11-21T04:35:04;6.40;99.90
19652;DHT22;9974;52.146;14.668;2023-11-21T04:37:30;6.50;99.90
19652;DHT22;9974;52.146;14.668;2023-11-21T04:39:55;6.40;99.90
19652;DHT22;9974;52.146;14.668;2023-11-21T04:42:21;6.40;99.90
19652;DHT22;9974;52.146;14.668;2023-11-21T04:44:48;6.40;99.90
19652;DHT22;9974;52.146;14.668;2023-11-21T04:47:14;6.30;99.90
19652;DHT22;9974;52.146;14.668;2023-11-21T04:49:41;6.30;99.90
19652;DHT22;9974;52.146;14.668;2023-11-21T04:52:07;6.20;99.90
19652;DHT22;9974;52.146;14.668;2023-11-21T04:54:35;6.10;99.90
19652;DHT22;9974;52.146;14.668;2023-11-21T04:57:00;6.10;99.90
19652;DHT22;9974;52.146;14.668;2023-11-21T04:59:26;6.10;99.90
19652;DHT22;9974;52.146;14.668;2023-11-21T05:01:52;6.00;99.90
19652;DHT22;9974;52.146;14.668;2023-11-21T05:04:19;6.10;99.90
19652;DHT22;9974;52.146;14.668;2023-11-21T05:06:45;6.10;99.90
19652;DHT22;9974;52.146;14.668;2023-11-21T05:09:11;6.10;99.90
19652;DHT22;9974;52.146;14.668;2023-11-21T05:11:37;6.00;99.90
19652;DHT22;9974;52.146;14.668;2023-11-21T05:14:03;6.00;99.90
19652;DHT22;9974;52.146;14.668;2023-11-21T05:16:30;6.00;99.90
19652;DHT22;9974;52.146;14.668;2023-11-21T05:18:56;6.00;99.90
19652;DHT22;9974;52.146;14.668;2023-11-21T05:21:25;6.00;99.90
19652;DHT22;9974;52.146;14.668;2023-11-21T05:23:51;5.90;99.90
19652;DHT22;9974;52.146;14.668;2023-11-21T05:26:17;5.90;99.90
19652;DHT22;9974;52.146;14.668;2023-11-21T05:28:42;6.00;99.90
19652;DHT22;9974;52.146;14.668;2023-11-21T05:31:08;6.00;99.90
19652;DHT22;9974;52.146;14.668;2023-11-21T05:33:34;5.90;99.90
19652;DHT22;9974;52.146;14.668;2023-11-21T05:35:59;5.90;99.90
19652;DHT22;9974;52.146;14.668;2023-11-21T05:38:25;5.80;99.90
19652;DHT22;9974;52.146;14.668;2023-11-21T05:40:51;5.80;99.90
19652;DHT22;9974;52.146;14.668;2023-11-21T05:43:16;5.90;99.90
19652;DHT22;9974;52.146;14.668;2023-11-21T05:45:43;5.90;99.90
19652;DHT22;9974;52.146;14.668;2023-11-21T05:48:08;5.90;99.90
19652;DHT22;9974;52.146;14.668;2023-11-21T05:50:34;5.80;99.90
19652;DHT22;9974;52.146;14.668;2023-11-21T05:53:00;5.80;99.90
19652;DHT22;9974;52.146;14.668;2023-11-21T05:55:25;5.70;99.90
19652;DHT22;9974;52.146;14.668;2023-11-21T05:57:51;5.60;99.90
19652;DHT22;9974;52.146;14.668;2023-11-21T06:00:17;5.50;99.90
19652;DHT22;9974;52.146;14.668;2023-11-21T06:02:47;5.60;99.90
19652;DHT22;9974;52.146;14.668;2023-11-21T06:05:16;5.60;99.90
19652;DHT22;9974;52.146;14.668;2023-11-21T06:07:43;5.60;99.90
19652;DHT22;9974;52.146;14.668;2023-11-21T06:10:08;5.60;99.90
19652;DHT22;9974;52.146;14.668;2023-11-21T06:12:36;5.70;99.90
19652;DHT22;9974;52.146;14.668;2023-11-21T06:15:03;5.70;99.90
19652;DHT22;9974;52.146;14.668;2023-11-21T06:17:51;5.70;99.90
19652;DHT22;9974;52.146;14.668;2023-11-21T06:20:17;5.70;99.90
19652;DHT22;9974;52.146;14.668;2023-11-21T06:22:44;5.60;99.90
19652;DHT22;9974;52.146;14.668;2023-11-21T06:27:44;5.40;99.90
19652;DHT22;9974;52.146;14.668;2023-11-21T06:30:11;5.40;99.90
19652;DHT22;9974;52.146;14.668;2023-11-21T06:32:39;5.50;99.90
19652;DHT22;9974;52.146;14.668;2023-11-21T06:35:05;5.60;99.90
19652;DHT22;9974;52.146;14.668;2023-11-21T06:37:31;5.60;99.90
19652;DHT22;9974;52.146;14.668;2023-11-21T06:39:57;5.60;99.90
19652;DHT22;9974;52.146;14.668;2023-11-21T06:42:24;5.60;99.90
19652;DHT22;9974;52.146;14.668;2023-11-21T06:44:50;5.60;99.90
19652;DHT22;9974;52.146;14.668;2023-11-21T06:47:19;5.60;99.90
19652;DHT22;9974;52.146;14.668;2023-11-21T06:49:50;5.60;99.90
19652;DHT22;9974;52.146;14.668;2023-11-21T06:52:16;5.50;99.90
19652;DHT22;9974;52.146;14.668;2023-11-21T06:54:42;5.40;99.90
19652;DHT22;9974;52.146;14.668;2023-11-21T06:57:07;5.30;99.90
19652;DHT22;9974;52.146;14.668;2023-11-21T06:59:33;5.30;99.90
19652;DHT22;9974;52.146;14.668;2023-11-21T07:01:59;5.30;99.90
19652;DHT22;9974;52.146;14.668;2023-11-21T07:04:24;5.20;99.90
19652;DHT22;9974;52.146;14.668;2023-11-21T07:06:51;5.20;99.90
19652;DHT22;9974;52.146;14.668;2023-11-21T07:09:17;5.10;99.90
19652;DHT22;9974;52.146;14.668;2023-11-21T07:11:42;5.10;99.90
19652;DHT22;9974;52.146;14.668;2023-11-21T07:14:08;5.10;99.90
19652;DHT22;9974;52.146;14.668;2023-11-21T07:16:34;5.10;99.90
19652;DHT22;9974;52.146;14.668;2023-11-21T07:19:03;5.10;99.90
19652;DHT22;9974;52.146;14.668;2023-11-21T07:21:32;5.00;99.90
19652;DHT22;9974;52.146;14.668;2023-11-21T07:26:26;5.00;99.90
19652;DHT22;9974;52.146;14.668;2023-11-21T07:28:52;4.90;99.90
19652;DHT22;9974;52.146;14.668;2023-11-21T07:31:18;4.90;99.90
19652;DHT22;9974;52.146;14.668;2023-11-21T07:33:44;4.90;99.90
19652;DHT22;9974;52.146;14.668;2023-11-21T07:36:12;4.90;99.90
19652;DHT22;9974;52.146;14.668;2023-11-21T07:38:38;5.00;99.90
19652;DHT22;9974;52.146;14.668;2023-11-21T07:41:04;5.00;99.90
19652;DHT22;9974;52.146;14.668;2023-11-21T07:43:30;4.90;99.90
19652;DHT22;9974;52.146;14.668;2023-11-21T07:46:03;4.90;99.90
19652;DHT22;9974;52.146;14.668;2023-11-21T07:48:29;4.90;99.90
19652;DHT22;9974;52.146;14.668;2023-11-21T07:50:56;4.90;99.90
19652;DHT22;9974;52.146;14.668;2023-11-21T07:53:24;4.90;99.90
19652;DHT22;9974;52.146;14.668;2023-11-21T07:55:51;4.80;99.90
19652;DHT22;9974;52.146;14.668;2023-11-21T07:58:17;4.90;99.90
19652;DHT22;9974;52.146;14.668;2023-11-21T08:00:43;4.90;99.90
19652;DHT22;9974;52.146;14.668;2023-11-21T08:03:08;4.90;99.90
19652;DHT22;9974;52.146;14.668;2023-11-21T08:05:34;4.90;99.90
19652;DHT22;9974;52.146;14.668;2023-11-21T08:08:00;5.00;99.90
19652;DHT22;9974;52.146;14.668;2023-11-21T08:10:26;5.00;99.90
19652;DHT22;9974;52.146;14.668;2023-11-21T08:12:51;5.10;99.90
19652;DHT22;9974;52.146;14.668;2023-11-21T08:15:18;5.10;99.90
19652;DHT22;9974;52.146;14.668;2023-11-21T08:17:45;5.20;99.90
19652;DHT22;9974;52.146;14.668;2023-11-21T08:20:11;5.30;99.90
19652;DHT22;9974;52.146;14.668;2023-11-21T08:22:37;5.30;99.90
19652;DHT22;9974;52.146;14.668;2023-11-21T08:25:05;5.40;99.90
19652;DHT22;9974;52.146;14.668;2023-11-21T08:27:31;5.30;99.90
19652;DHT22;9974;52.146;14.668;2023-11-21T08:29:56;5.30;99.90
19652;DHT22;9974;52.146;14.668;2023-11-21T08:32:23;5.20;99.90
19652;DHT22;9974;52.146;14.668;2023-11-21T08:34:49;5.20;99.90
19652;DHT22;9974;52.146;14.668;2023-11-21T08:37:16;5.20;99.90
19652;DHT22;9974;52.146;14.668;2023-11-21T08:39:43;5.20;99.90
19652;DHT22;9974;52.146;14.668;2023-11-21T08:42:09;5.20;99.90
19652;DHT22;9974;52.146;14.668;2023-11-21T08:44:35;5.20;99.90
19652;DHT22;9974;52.146;14.668;2023-11-21T08:47:00;5.20;99.90
19652;DHT22;9974;52.146;14.668;2023-11-21T08:49:26;5.30;99.90
19652;DHT22;9974;52.146;14.668;2023-11-21T08:51:53;5.30;99.90
19652;DHT22;9974;52.146;14.668;2023-11-21T08:54:20;5.40;99.90
19652;DHT22;9974;52.146;14.668;2023-11-21T08:56:46;5.30;99.90
19652;DHT22;9974;52.146;14.668;2023-11-21T08:59:12;5.40;99.90
19652;DHT22;9974;52.146;14.668;2023-11-21T09:01:39;5.50;99.90
19652;DHT22;9974;52.146;14.668;2023-11-21T09:04:05;5.40;99.90
19652;DHT22;9974;52.146;14.668;2023-11-21T09:06:30;5.30;99.90
19652;DHT22;9974;52.146;14.668;2023-11-21T09:08:56;5.30;99.90
19652;DHT22;9974;52.146;14.668;2023-11-21T09:11:22;5.30;99.90
19652;DHT22;9974;52.146;14.668;2023-11-21T09:13:48;5.30;99.90
19652;DHT22;9974;52.146;14.668;2023-11-21T09:16:14;5.30;99.90
19652;DHT22;9974;52.146;14.668;2023-11-21T09:18:41;5.30;99.90
19652;DHT22;9974;52.146;14.668;2023-11-21T09:21:06;5.30;99.90
19652;DHT22;9974;52.146;14.668;2023-11-21T09:23:34;5.20;99.90
19652;DHT22;9974;52.146;14.668;2023-11-21T09:26:00;5.10;99.90
19652;DHT22;9974;52.146;14.668;2023-11-21T09:28:26;5.10;99.90
19652;DHT22;9974;52.146;14.668;2023-11-21T09:30:52;5.10;99.90
19652;DHT22;9974;52.146;14.668;2023-11-21T09:33:18;5.20;99.90
19652;DHT22;9974;52.146;14.668;2023-11-21T09:35:44;5.10;99.90
19652;DHT22;9974;52.146;14.668;2023-11-21T09:38:10;5.10;99.90
19652;DHT22;9974;52.146;14.668;2023-11-21T09:40:36;5.10;99.90
19652;DHT22;9974;52.146;14.668;2023-11-21T09:43:06;5.10;99.90
19652;DHT22;9974;52.146;14.668;2023-11-21T09:45:36;5.10;99.90
19652;DHT22;9974;52.146;14.668;2023-11-21T09:48:04;5.10;99.90
19652;DHT22;9974;52.146;14.668;2023-11-21T09:50:31;5.10;99.90
19652;DHT22;9974;52.146;14.668;2023-11-21T09:53:04;5.00;99.90
19652;DHT22;9974;52.146;14.668;2023-11-21T09:55:32;4.90;99.90
19652;DHT22;9974;52.146;14.668;2023-11-21T09:58:02;4.90;99.90
19652;DHT22;9974;52.146;14.668;2023-11-21T10:00:28;5.00;99.90
19652;DHT22;9974;52.146;14.668;2023-11-21T10:02:54;4.90;99.90
19652;DHT22;9974;52.146;14.668;2023-11-21T10:05:21;4.80;99.90
19652;DHT22;9974;52.146;14.668;2023-11-21T10:07:48;4.50;99.90
19652;DHT22;9974;52.146;14.668;2023-11-21T10:10:15;4.80;99.90
19652;DHT22;9974;52.146;14.668;2023-11-21T10:12:43;4.70;99.90
19652;DHT22;9974;52.146;14.668;2023-11-21T10:15:13;4.70;99.90
19652;DHT22;9974;52.146;14.668;2023-11-21T10:17:41;4.60;99.90
19652;DHT22;9974;52.146;14.668;2023-11-21T10:20:11;4.50;99.90
19652;DHT22;9974;52.146;14.668;2023-11-21T10:22:40;4.50;99.90
19652;DHT22;9974;52.146;14.668;2023-11-21T10:25:09;4.50;99.90
19652;DHT22;9974;52.146;14.668;2023-11-21T10:27:35;4.40;99.90
19652;DHT22;9974;52.146;14.668;2023-11-21T10:30:02;4.40;99.90
19652;DHT22;9974;52.146;14.668;2023-11-21T10:32:29;4.40;99.90
19652;DHT22;9974;52.146;14.668;2023-11-21T10:34:58;4.30;99.90
19652;DHT22;9974;52.146;14.668;2023-11-21T10:37:32;4.30;99.90
19652;DHT22;9974;52.146;14.668;2023-11-21T10:39:58;4.30;99.90
19652;DHT22;9974;52.146;14.668;2023-11-21T10:42:24;4.30;99.90
19652;DHT22;9974;52.146;14.668;2023-11-21T10:44:49;4.30;99.90
19652;DHT22;9974;52.146;14.668;2023-11-21T10:47:16;4.30;99.90
19652;DHT22;9974;52.146;14.668;2023-11-21T10:49:44;4.20;99.90
19652;DHT22;9974;52.146;14.668;2023-11-21T10:52:13;4.20;99.90
19652;DHT22;9974;52.146;14.668;2023-11-21T10:54:43;4.10;99.90
19652;DHT22;9974;52.146;14.668;2023-11-21T10:57:08;4.10;99.90
19652;DHT22;9974;52.146;14.668;2023-11-21T10:59:35;4.00;99.90
19652;DHT22;9974;52.146;14.668;2023-11-21T11:02:01;4.00;99.90
19652;DHT22;9974;52.146;14.668;2023-11-21T11:04:35;3.90;99.90
19652;DHT22;9974;52.146;14.668;2023-11-21T11:07:03;3.90;99.90
19652;DHT22;9974;52.146;14.668;2023-11-21T11:09:31;3.80;99.90
19652;DHT22;9974;52.146;14.668;2023-11-21T11:11:59;3.60;99.90
19652;DHT22;9974;52.146;14.668;2023-11-21T11:14:26;3.60;99.90
19652;DHT22;9974;52.146;14.668;2023-11-21T11:16:53;3.60;99.90
19652;DHT22;9974;52.146;14.668;2023-11-21T11:19:20;3.50;99.90
19652;DHT22;9974;52.146;14.668;2023-11-21T11:21:50;3.50;99.90
19652;DHT22;9974;52.146;14.668;2023-11-21T11:27:21;3.60;99.90
19652;DHT22;9974;52.146;14.668;2023-11-21T11:29:59;3.60;99.90
19652;DHT22;9974;52.146;14.668;2023-11-21T11:32:57;3.50;99.90
19652;DHT22;9974;52.146;14.668;2023-11-21T11:36:13;3.50;99.90
19652;DHT22;9974;52.146;14.668;2023-11-21T11:38:18;3.40;99.90
19652;DHT22;9974;52.146;14.668;2023-11-21T11:40:46;3.40;99.90
19652;DHT22;9974;52.146;14.668;2023-11-21T11:43:13;3.40;99.90
19652;DHT22;9974;52.146;14.668;2023-11-21T11:45:38;3.40;99.90
19652;DHT22;9974;52.146;14.668;2023-11-21T11:48:07;3.40;99.90
19652;DHT22;9974;52.146;14.668;2023-11-21T11:50:33;3.50;99.90
19652;DHT22;9974;52.146;14.668;2023-11-21T11:53:12;3.50;99.90
19652;DHT22;9974;52.146;14.668;2023-11-21T11:55:38;3.50;99.90
19652;DHT22;9974;52.146;14.668;2023-11-21T11:58:05;3.50;99.90
19652;DHT22;9974;52.146;14.668;2023-11-21T12:02:59;3.50;99.90
19652;DHT22;9974;52.146;14.668;2023-11-21T12:05:28;3.40;99.90
19652;DHT22;9974;52.146;14.668;2023-11-21T12:07:56;3.40;99.90
19652;DHT22;9974;52.146;14.668;2023-11-21T12:10:23;3.30;99.90
19652;DHT22;9974;52.146;14.668;2023-11-21T12:12:50;3.30;99.90
19652;DHT22;9974;52.146;14.668;2023-11-21T12:15:20;3.20;99.90
19652;DHT22;9974;52.146;14.668;2023-11-21T12:17:46;3.20;99.90
19652;DHT22;9974;52.146;14.668;2023-11-21T12:20:13;3.20;99.90
19652;DHT22;9974;52.146;14.668;2023-11-21T12:22:48;3.30;99.90
19652;DHT22;9974;52.146;14.668;2023-11-21T12:25:24;3.30;99.90
19652;DHT22;9974;52.146;14.668;2023-11-21T12:27:53;3.20;99.90
19652;DHT22;9974;52.146;14.668;2023-11-21T12:30:20;3.10;99.90
19652;DHT22;9974;52.146;14.668;2023-11-21T12:32:55;3.00;99.90
19652;DHT22;9974;52.146;14.668;2023-11-21T12:35:24;3.00;99.90
19652;DHT22;9974;52.146;14.668;2023-11-21T12:37:51;3.00;99.90
19652;DHT22;9974;52.146;14.668;2023-11-21T12:40:17;3.10;99.90
19652;DHT22;9974;52.146;14.668;2023-11-21T12:42:44;3.00;99.90
19652;DHT22;9974;52.146;14.668;2023-11-21T12:45:24;3.00;99.90
19652;DHT22;9974;52.146;14.668;2023-11-21T12:47:56;2.90;99.90
19652;DHT22;9974;52.146;14.668;2023-11-21T12:50:28;2.90;99.90
19652;DHT22;9974;52.146;14.668;2023-11-21T12:55:25;2.90;99.90
19652;DHT22;9974;52.146;14.668;2023-11-21T12:57:52;2.80;99.90
19652;DHT22;9974;52.146;14.668;2023-11-21T13:00:20;2.80;99.90
19652;DHT22;9974;52.146;14.668;2023-11-21T13:02:54;2.90;99.90
19652;DHT22;9974;52.146;14.668;2023-11-21T13:05:32;2.80;99.90
19652;DHT22;9974;52.146;14.668;2023-11-21T13:08:01;2.70;99.90
19652;DHT22;9974;52.146;14.668;2023-11-21T13:10:28;3.20;99.90
19652;DHT22;9974;52.146;14.668;2023-11-21T13:12:57;2.80;99.90
19652;DHT22;9974;52.146;14.668;2023-11-21T13:15:25;2.90;99.90
19652;DHT22;9974;52.146;14.668;2023-11-21T13:17:51;2.90;99.90
19652;DHT22;9974;52.146;14.668;2023-11-21T13:20:19;2.90;99.90
19652;DHT22;9974;52.146;14.668;2023-11-21T13:22:52;2.90;99.90
19652;DHT22;9974;52.146;14.668;2023-11-21T13:25:29;2.80;99.90
19652;DHT22;9974;52.146;14.668;2023-11-21T13:27:59;2.90;99.90
19652;DHT22;9974;52.146;14.668;2023-11-21T13:30:26;2.90;99.90
19652;DHT22;9974;52.146;14.668;2023-11-21T13:32:53;2.70;99.90
19652;DHT22;9974;52.146;14.668;2023-11-21T13:35:22;2.90;99.90
19652;DHT22;9974;52.146;14.668;2023-11-21T13:38:06;2.80;99.90
19652;DHT22;9974;52.146;14.668;2023-11-21T13:40:34;2.80;99.90
19652;DHT22;9974;52.146;14.668;2023-11-21T13:43:10;2.70;99.90
19652;DHT22;9974;52.146;14.668;2023-11-21T13:45:37;2.80;99.90
19652;DHT22;9974;52.146;14.668;2023-11-21T13:48:05;2.80;99.90
19652;DHT22;9974;52.146;14.668;2023-11-21T13:50:35;2.80;99.90
19652;DHT22;9974;52.146;14.668;2023-11-21T13:53:01;2.80;99.90
19652;DHT22;9974;52.146;14.668;2023-11-21T13:55:44;2.90;99.90
19652;DHT22;9974;52.146;14.668;2023-11-21T13:58:10;2.80;99.90
19652;DHT22;9974;52.146;14.668;2023-11-21T14:00:42;2.80;99.90
19652;DHT22;9974;52.146;14.668;2023-11-21T14:03:11;2.80;99.90
19652;DHT22;9974;52.146;14.668;2023-11-21T14:05:50;2.80;99.90
19652;DHT22;9974;52.146;14.668;2023-11-21T14:08:20;2.80;99.90
19652;DHT22;9974;52.146;14.668;2023-11-21T14:10:47;2.70;99.90
19652;DHT22;9974;52.146;14.668;2023-11-21T14:13:18;2.70;99.90
19652;DHT22;9974;52.146;14.668;2023-11-21T14:15:45;2.60;99.90
19652;DHT22;9974;52.146;14.668;2023-11-21T14:18:12;2.60;99.90
19652;DHT22;9974;52.146;14.668;2023-11-21T14:20:42;2.20;99.90
19652;DHT22;9974;52.146;14.668;2023-11-21T14:23:09;2.50;99.90
19652;DHT22;9974;52.146;14.668;2023-11-21T14:25:36;2.40;99.90
19652;DHT22;9974;52.146;14.668;2023-11-21T14:28:05;2.40;99.90
19652;DHT22;9974;52.146;14.668;2023-11-21T14:30:34;2.30;99.90
19652;DHT22;9974;52.146;14.668;2023-11-21T14:33:01;2.40;99.90
19652;DHT22;9974;52.146;14.668;2023-11-21T14:35:27;2.40;99.90
19652;DHT22;9974;52.146;14.668;2023-11-21T14:37:55;2.40;99.90
19652;DHT22;9974;52.146;14.668;2023-11-21T14:40:21;2.40;99.90
19652;DHT22;9974;52.146;14.668;2023-11-21T14:42:50;2.40;99.90
19652;DHT22;9974;52.146;14.668;2023-11-21T14:45:20;2.30;99.90
19652;DHT22;9974;52.146;14.668;2023-11-21T14:47:47;2.30;99.90
19652;DHT22;9974;52.146;14.668;2023-11-21T14:50:23;2.20;99.90
19652;DHT22;9974;52.146;14.668;2023-11-21T14:53:14;2.20;99.90
19652;DHT22;9974;52.146;14.668;2023-11-21T14:55:40;2.20;99.90
19652;DHT22;9974;52.146;14.668;2023-11-21T14:58:14;2.20;99.90
19652;DHT22;9974;52.146;14.668;2023-11-21T15:00:45;2.20;99.90
19652;DHT22;9974;52.146;14.668;2023-11-21T15:03:11;2.10;99.90
19652;DHT22;9974;52.146;14.668;2023-11-21T15:05:57;2.10;99.90
19652;DHT22;9974;52.146;14.668;2023-11-21T15:08:24;2.00;99.90
19652;DHT22;9974;52.146;14.668;2023-11-21T15:10:57;2.10;99.90
19652;DHT22;9974;52.146;14.668;2023-11-21T15:13:23;2.10;99.90
19652;DHT22;9974;52.146;14.668;2023-11-21T15:15:51;2.10;99.90
19652;DHT22;9974;52.146;14.668;2023-11-21T15:18:19;2.00;99.90
19652;DHT22;9974;52.146;14.668;2023-11-21T15:20:45;1.90;99.90
19652;DHT22;9974;52.146;14.668;2023-11-21T15:23:11;1.90;99.90
19652;DHT22;9974;52.146;14.668;2023-11-21T15:25:38;1.80;99.90
19652;DHT22;9974;52.146;14.668;2023-11-21T15:28:03;1.70;99.90
19652;DHT22;9974;52.146;14.668;2023-11-21T15:30:30;1.70;99.90
19652;DHT22;9974;52.146;14.668;2023-11-21T15:33:00;1.70;99.90
19652;DHT22;9974;52.146;14.668;2023-11-21T15:35:26;1.70;99.90
19652;DHT22;9974;52.146;14.668;2023-11-21T15:37:53;1.60;99.90
19652;DHT22;9974;52.146;14.668;2023-11-21T15:40:22;1.70;99.90
19652;DHT22;9974;52.146;14.668;2023-11-21T15:42:48;1.60;99.90
19652;DHT22;9974;52.146;14.668;2023-11-21T15:47:43;1.70;99.90
19652;DHT22;9974;52.146;14.668;2023-11-21T15:50:09;1.60;99.90
19652;DHT22;9974;52.146;14.668;2023-11-21T15:52:36;1.60;99.90
19652;DHT22;9974;52.146;14.668;2023-11-21T15:55:02;1.60;99.90
19652;DHT22;9974;52.146;14.668;2023-11-21T15:57:27;1.60;99.90
19652;DHT22;9974;52.146;14.668;2023-11-21T15:59:53;1.70;99.90
19652;DHT22;9974;52.146;14.668;2023-11-21T16:02:19;1.70;99.90
19652;DHT22;9974;52.146;14.668;2023-11-21T16:04:45;1.70;99.90
19652;DHT22;9974;52.146;14.668;2023-11-21T16:07:11;1.70;99.90